createdAt,value
2022-12-12T00:01:43.652Z,21.88
2022-12-12T00:04:10.288Z,23.73
2022-12-12T00:06:37.963Z,22.60
2022-12-12T00:09:04.855Z,24.55
2022-12-12T00:11:31.752Z,26.58
2022-12-12T00:13:58.510Z,22.48
2022-12-12T00:16:25.598Z,22.60
2022-12-12T00:18:52.359Z,23.70
2022-12-12T00:21:22.211Z,25.38
2022-12-12T00:23:48.909Z,25.10
2022-12-12T00:26:20.202Z,26.80
2022-12-12T00:28:47.285Z,25.58
2022-12-12T00:31:14.516Z,24.23
2022-12-12T00:33:41.267Z,23.77
2022-12-12T00:36:08.197Z,23.15
2022-12-12T00:38:34.873Z,27.95
2022-12-12T00:41:02.908Z,24.17
2022-12-12T00:43:29.864Z,22.52
2022-12-12T00:45:58.975Z,25.30
2022-12-12T00:48:26.346Z,27.05
2022-12-12T00:50:53.205Z,22.48
2022-12-12T00:53:19.873Z,25.08
2022-12-12T00:55:46.760Z,25.27
2022-12-12T00:58:13.397Z,19.85
2022-12-12T01:00:44.057Z,24.48
2022-12-12T01:03:10.834Z,21.75
2022-12-12T01:05:37.650Z,23.17
2022-12-12T01:08:04.448Z,22.13
2022-12-12T01:10:31.254Z,24.35
2022-12-12T01:12:57.939Z,25.30
2022-12-12T01:15:24.703Z,20.85
2022-12-12T01:17:51.420Z,22.52
2022-12-12T01:20:21.809Z,22.85
2022-12-12T01:22:49.461Z,21.73
2022-12-12T01:25:17.176Z,22.98
2022-12-12T01:27:45.772Z,21.35
2022-12-12T01:30:15.295Z,21.58
2022-12-12T01:32:42.035Z,22.13
2022-12-12T01:35:09.959Z,23.52
2022-12-12T01:37:39.196Z,20.75
2022-12-12T01:40:08.549Z,20.85
2022-12-12T01:42:35.623Z,21.35
2022-12-12T01:45:03.036Z,16.55
2022-12-12T01:47:29.758Z,17.40
2022-12-12T01:50:04.057Z,21.60
2022-12-12T01:52:38.556Z,22.92
2022-12-12T01:55:07.032Z,27.65
2022-12-12T01:57:38.519Z,29.75
2022-12-12T02:00:07.878Z,24.80
2022-12-12T02:02:34.897Z,24.35
2022-12-12T02:05:04.859Z,25.15
2022-12-12T02:07:31.741Z,23.20
2022-12-12T02:09:58.414Z,22.48
2022-12-12T02:12:25.144Z,25.52
2022-12-12T02:14:52.581Z,26.08
2022-12-12T02:17:22.240Z,26.98
2022-12-12T02:20:05.090Z,29.15
2022-12-12T02:22:47.678Z,25.88
2022-12-12T02:25:36.245Z,24.85
2022-12-12T02:28:21.173Z,25.80
2022-12-12T02:31:18.752Z,25.38
2022-12-12T02:34:00.903Z,26.25
2022-12-12T02:36:36.877Z,29.98
2022-12-12T02:39:14.056Z,21.30
2022-12-12T02:41:49.860Z,25.13
2022-12-12T02:44:36.038Z,28.23
2022-12-12T02:47:23.179Z,26.17
2022-12-12T02:50:08.764Z,24.13
2022-12-12T02:52:36.527Z,27.95
2022-12-12T02:55:04.766Z,22.90
2022-12-12T02:57:31.468Z,25.00
2022-12-12T03:00:00.744Z,19.33
2022-12-12T03:02:40.530Z,22.02
2022-12-12T03:05:32.846Z,22.88
2022-12-12T03:08:33.596Z,21.67
2022-12-12T03:11:07.760Z,21.38
2022-12-12T03:13:46.986Z,20.58
2022-12-12T03:16:28.418Z,22.58
2022-12-12T03:19:00.777Z,21.02
2022-12-12T03:21:39.665Z,20.88
2022-12-12T03:24:12.493Z,20.55
2022-12-12T03:26:46.687Z,19.88
2022-12-12T03:29:15.594Z,19.55
2022-12-12T03:31:45.485Z,18.83
2022-12-12T03:34:23.753Z,21.77
2022-12-12T03:37:04.198Z,17.70
2022-12-12T03:39:35.540Z,19.20
2022-12-12T03:42:29.609Z,18.33
2022-12-12T03:45:05.544Z,17.33
2022-12-12T03:47:37.700Z,16.35
2022-12-12T03:50:11.368Z,21.30
2022-12-12T03:52:43.085Z,19.85
2022-12-12T03:55:21.020Z,14.93
2022-12-12T03:58:00.475Z,12.80
2022-12-12T04:00:29.344Z,14.52
2022-12-12T04:03:05.513Z,11.95
2022-12-12T04:06:28.261Z,13.75
2022-12-12T04:09:16.531Z,13.30
2022-12-12T04:12:15.616Z,12.40
2022-12-12T04:15:00.278Z,13.55
2022-12-12T04:17:40.787Z,13.60
2022-12-12T04:20:41.146Z,12.60
2022-12-12T04:23:38.243Z,14.35
2022-12-12T04:26:25.480Z,13.07
2022-12-12T04:29:18.851Z,13.95
2022-12-12T04:32:10.054Z,14.43
2022-12-12T04:34:47.847Z,18.88
2022-12-12T04:37:18.284Z,16.63
2022-12-12T04:39:46.867Z,18.88
2022-12-12T04:42:16.936Z,14.30
2022-12-12T04:44:45.136Z,16.27
2022-12-12T04:47:13.081Z,14.80
2022-12-12T04:49:40.546Z,14.52
2022-12-12T04:52:09.846Z,15.50
2022-12-12T04:54:58.032Z,18.45
2022-12-12T04:57:29.379Z,17.92
2022-12-12T04:59:56.450Z,15.63
2022-12-12T05:02:33.946Z,14.80
2022-12-12T05:05:32.330Z,14.43
2022-12-12T05:08:05.934Z,14.82
2022-12-12T05:10:32.711Z,18.23
2022-12-12T05:13:00.668Z,17.75
2022-12-12T05:15:28.368Z,17.60
2022-12-12T05:18:05.621Z,18.83
2022-12-12T05:20:32.361Z,18.42
2022-12-12T05:22:59.444Z,15.73
2022-12-12T05:25:26.172Z,17.63
2022-12-12T05:27:52.965Z,16.95
2022-12-12T05:30:19.684Z,20.05
2022-12-12T05:32:46.365Z,19.95
2022-12-12T05:35:13.331Z,18.45
2022-12-12T05:37:40.320Z,69.22
2022-12-12T05:40:10.820Z,93.47
2022-12-12T05:42:37.550Z,61.20
2022-12-12T05:45:05.764Z,39.00
2022-12-12T05:47:32.450Z,26.33
2022-12-12T05:49:59.227Z,25.20
2022-12-12T05:52:26.116Z,40.45
2022-12-12T05:54:52.964Z,36.88
2022-12-12T05:57:19.824Z,40.05
2022-12-12T05:59:46.973Z,26.95
2022-12-12T06:02:14.151Z,21.88
2022-12-12T06:04:41.293Z,24.98
2022-12-12T06:07:08.622Z,26.75
2022-12-12T06:09:36.348Z,20.15
2022-12-12T06:12:03.149Z,28.50
2022-12-12T06:14:29.890Z,25.20
2022-12-12T06:16:56.628Z,25.30
2022-12-12T06:19:23.514Z,33.78
2022-12-12T06:21:50.429Z,25.92
2022-12-12T06:24:17.083Z,17.75
2022-12-12T06:26:43.764Z,21.73
2022-12-12T06:29:10.571Z,21.45
2022-12-12T06:31:37.413Z,24.65
2022-12-12T06:34:04.148Z,22.80
2022-12-12T06:36:30.904Z,26.58
2022-12-12T06:38:59.781Z,25.45
2022-12-12T06:41:29.269Z,31.25
2022-12-12T06:43:56.312Z,29.10
2022-12-12T06:46:25.889Z,23.73
2022-12-12T06:48:53.340Z,21.45
2022-12-12T06:51:22.818Z,20.25
2022-12-12T06:53:49.799Z,16.55
2022-12-12T06:56:19.932Z,22.35
2022-12-12T06:58:47.104Z,18.42
2022-12-12T07:01:15.622Z,19.48
2022-12-12T07:03:42.368Z,19.92
2022-12-12T07:06:09.183Z,43.22
2022-12-12T07:08:36.301Z,38.17
2022-12-12T07:11:05.662Z,31.50
2022-12-12T07:13:32.783Z,22.73
2022-12-12T07:15:59.497Z,22.50
2022-12-12T07:18:26.291Z,17.48
2022-12-12T07:20:53.017Z,17.02
2022-12-12T07:23:20.077Z,16.08
2022-12-12T07:25:46.841Z,18.13
2022-12-12T07:28:14.861Z,17.45
2022-12-12T07:30:44.690Z,16.05
2022-12-12T07:33:12.064Z,18.13
2022-12-12T07:35:38.774Z,15.82
2022-12-12T07:38:05.990Z,18.85
2022-12-12T07:40:33.127Z,17.63
2022-12-12T07:43:00.663Z,15.57
2022-12-12T07:45:28.000Z,14.43
2022-12-12T07:47:55.041Z,16.23
2022-12-12T07:50:22.344Z,13.18
2022-12-12T07:52:49.111Z,15.95
2022-12-12T07:55:16.251Z,14.50
2022-12-12T07:57:42.993Z,14.60
2022-12-12T08:00:10.805Z,15.30
2022-12-12T08:02:37.490Z,14.07
2022-12-12T08:05:04.513Z,13.93
2022-12-12T08:07:31.213Z,12.10
2022-12-12T08:09:57.863Z,10.68
2022-12-12T08:12:24.601Z,11.20
2022-12-12T08:14:51.363Z,13.02
2022-12-12T08:17:18.101Z,12.27
2022-12-12T08:19:44.842Z,10.98
2022-12-12T08:22:11.513Z,15.30
2022-12-12T08:24:38.190Z,14.00
2022-12-12T08:27:05.104Z,10.20
2022-12-12T08:29:32.182Z,8.63
2022-12-12T08:31:58.907Z,8.50
2022-12-12T08:34:26.035Z,10.25
2022-12-12T08:36:54.884Z,9.85
2022-12-12T08:39:21.605Z,9.23
2022-12-12T08:41:49.174Z,6.05
2022-12-12T08:44:18.420Z,6.80
2022-12-12T08:46:45.232Z,7.40
2022-12-12T08:49:12.486Z,5.78
2022-12-12T08:51:40.237Z,8.07
2022-12-12T08:54:08.144Z,5.30
2022-12-12T08:56:34.836Z,5.80
2022-12-12T08:59:01.507Z,4.15
2022-12-12T09:01:28.645Z,10.73
2022-12-12T09:03:57.031Z,10.93
2022-12-12T09:06:24.896Z,16.52
2022-12-12T09:08:51.816Z,17.88
2022-12-12T09:11:19.085Z,19.38
2022-12-12T09:13:45.950Z,15.30
2022-12-12T09:16:12.849Z,16.40
2022-12-12T09:18:47.806Z,17.20
2022-12-12T09:21:15.679Z,10.77
2022-12-12T09:23:42.402Z,14.20
2022-12-12T09:26:09.757Z,13.77
2022-12-12T09:28:36.961Z,13.32
2022-12-12T09:31:06.102Z,14.40
2022-12-12T09:33:33.384Z,16.73
2022-12-12T09:36:01.677Z,15.60
2022-12-12T09:38:28.765Z,14.50
2022-12-12T09:41:05.484Z,13.52
2022-12-12T09:43:36.790Z,13.05
2022-12-12T09:46:03.664Z,14.82
2022-12-12T09:48:36.716Z,12.50
2022-12-12T09:51:03.772Z,6.97
2022-12-12T09:53:30.581Z,9.05
2022-12-12T09:56:25.031Z,8.48
2022-12-12T09:59:07.730Z,10.85
2022-12-12T10:01:53.690Z,10.10
2022-12-12T10:04:27.063Z,7.32
2022-12-12T10:07:10.559Z,7.57
2022-12-12T10:09:44.916Z,10.55
2022-12-12T10:12:16.376Z,8.18
2022-12-12T10:14:48.899Z,10.40
2022-12-12T10:17:32.631Z,9.90
2022-12-12T10:20:15.119Z,10.65
2022-12-12T10:23:14.822Z,12.57
2022-12-12T10:25:56.455Z,16.77
2022-12-12T10:28:30.024Z,22.35
2022-12-12T10:31:25.481Z,19.48
2022-12-12T10:37:19.774Z,17.45
2022-12-12T10:39:55.653Z,15.02
2022-12-12T10:42:41.857Z,14.05
2022-12-12T10:45:17.503Z,11.15
2022-12-12T10:47:44.831Z,13.38
2022-12-12T10:50:13.290Z,13.57
2022-12-12T10:52:40.352Z,13.18
2022-12-12T10:55:19.166Z,14.43
2022-12-12T10:57:46.112Z,8.48
2022-12-12T11:00:18.675Z,9.77
2022-12-12T11:02:45.503Z,12.25
2022-12-12T11:05:17.171Z,13.38
2022-12-12T11:07:49.251Z,16.55
2022-12-12T11:10:34.262Z,19.00
2022-12-12T11:13:15.494Z,20.83
2022-12-12T11:16:00.252Z,22.17
2022-12-12T11:18:27.379Z,22.45
2022-12-12T11:21:11.744Z,22.23
2022-12-12T11:23:41.443Z,19.53
2022-12-12T11:26:17.481Z,15.88
2022-12-12T11:28:47.237Z,23.42
2022-12-12T11:31:17.507Z,20.15
2022-12-12T11:33:50.264Z,25.70
2022-12-12T11:36:19.535Z,21.83
2022-12-12T11:38:51.987Z,20.25
2022-12-12T11:41:19.068Z,20.58
2022-12-12T11:43:48.548Z,18.13
2022-12-12T11:46:15.271Z,16.67
2022-12-12T11:48:54.376Z,20.23
2022-12-12T11:51:47.269Z,19.25
2022-12-12T11:54:16.066Z,22.10
2022-12-12T11:57:15.639Z,18.83
2022-12-12T11:59:54.904Z,17.55
2022-12-12T12:02:46.006Z,19.23
2022-12-12T12:05:42.352Z,17.83
2022-12-12T12:08:39.964Z,15.07
2022-12-12T12:11:20.201Z,18.52
2022-12-12T12:14:02.462Z,15.98
2022-12-12T12:16:50.374Z,16.90
2022-12-12T12:19:41.916Z,15.05
2022-12-12T12:22:39.375Z,14.95
2022-12-12T12:25:25.136Z,12.23
2022-12-12T12:28:37.151Z,14.95
2022-12-12T12:31:16.114Z,16.42
2022-12-12T12:33:57.063Z,17.02
2022-12-12T12:36:28.312Z,16.10
2022-12-12T12:39:16.216Z,18.30
2022-12-12T12:42:11.440Z,13.48
2022-12-12T12:45:05.742Z,16.30
2022-12-12T12:47:52.356Z,15.20
2022-12-12T12:50:34.944Z,13.63
2022-12-12T12:53:08.134Z,11.32
2022-12-12T12:55:51.120Z,10.80
2022-12-12T12:58:24.782Z,12.55
2022-12-12T13:01:08.449Z,13.77
2022-12-12T13:03:55.331Z,13.25
2022-12-12T13:07:04.533Z,13.73
2022-12-12T13:09:46.993Z,12.35
2022-12-12T13:12:34.350Z,15.30
2022-12-12T13:15:18.988Z,16.23
2022-12-12T13:18:01.180Z,15.65
2022-12-12T13:20:29.477Z,14.77
2022-12-12T13:23:12.826Z,17.88
2022-12-12T13:25:57.932Z,12.90
2022-12-12T13:28:38.839Z,14.88
2022-12-12T13:31:36.509Z,14.65
2022-12-12T13:34:10.783Z,13.30
2022-12-12T13:36:41.204Z,16.75
2022-12-12T13:39:23.428Z,11.98
2022-12-12T13:42:07.554Z,11.57
2022-12-12T13:44:49.168Z,12.43
2022-12-12T13:47:22.062Z,16.02
2022-12-12T13:50:10.904Z,19.75
2022-12-12T13:52:42.299Z,23.75
2022-12-12T13:55:12.752Z,25.33
2022-12-12T13:58:05.804Z,22.20
2022-12-12T14:00:37.394Z,23.52
2022-12-12T14:03:15.860Z,23.48
2022-12-12T14:05:50.621Z,20.63
2022-12-12T14:08:18.124Z,25.48
2022-12-12T14:10:59.962Z,22.08
2022-12-12T14:13:45.843Z,21.98
2022-12-12T14:16:25.958Z,29.65
2022-12-12T14:18:55.909Z,25.67
2022-12-12T14:21:46.451Z,27.13
2022-12-12T14:24:35.263Z,27.88
2022-12-12T14:27:07.099Z,28.05
2022-12-12T14:29:34.922Z,29.23
2022-12-12T14:32:13.810Z,33.10
2022-12-12T14:35:09.690Z,31.02
2022-12-12T14:38:13.118Z,30.60
2022-12-12T14:40:45.402Z,31.98
2022-12-12T14:43:23.629Z,32.80
2022-12-12T14:45:50.325Z,31.98
2022-12-12T14:48:24.586Z,33.40
2022-12-12T14:50:53.541Z,31.95
2022-12-12T14:53:27.968Z,34.33
2022-12-12T14:55:58.301Z,28.65
2022-12-12T14:58:28.154Z,32.80
2022-12-12T15:00:58.020Z,29.15
2022-12-12T15:03:29.776Z,38.03
2022-12-12T15:06:29.984Z,35.10
2022-12-12T15:09:06.905Z,35.17
2022-12-12T15:11:33.787Z,29.63
2022-12-12T15:14:01.960Z,31.20
2022-12-12T15:16:48.069Z,34.38
2022-12-12T15:19:26.719Z,35.80
2022-12-12T15:21:53.660Z,33.00
2022-12-12T15:24:23.032Z,30.50
2022-12-12T15:26:52.152Z,33.83
2022-12-12T15:29:22.545Z,33.60
2022-12-12T15:31:52.770Z,31.75
2022-12-12T15:34:32.837Z,28.42
2022-12-12T15:37:17.871Z,28.05
2022-12-12T15:39:45.320Z,28.08
2022-12-12T15:42:13.744Z,23.27
2022-12-12T15:44:42.910Z,30.27
2022-12-12T15:47:13.778Z,34.97
2022-12-12T15:49:42.898Z,30.42
2022-12-12T15:52:20.568Z,41.15
2022-12-12T15:54:55.789Z,35.83
2022-12-12T15:57:29.119Z,32.25
2022-12-12T16:00:02.707Z,30.35
2022-12-12T16:02:34.039Z,37.50
2022-12-12T16:05:08.163Z,34.72
2022-12-12T16:07:37.948Z,29.52
2022-12-12T16:10:10.881Z,36.45
2022-12-12T16:13:31.917Z,43.00
2022-12-12T16:15:58.845Z,54.60
2022-12-12T16:18:25.936Z,95.22
2022-12-12T16:20:54.844Z,55.95
2022-12-12T16:23:32.899Z,35.65
2022-12-12T16:26:00.003Z,27.15
2022-12-12T16:28:29.239Z,27.50
2022-12-12T16:31:04.210Z,31.15
2022-12-12T16:33:39.169Z,27.00
2022-12-12T16:36:14.347Z,25.40
2022-12-12T16:38:42.166Z,34.15
2022-12-12T16:41:14.655Z,31.13
2022-12-12T16:43:42.070Z,24.95
2022-12-12T16:46:19.768Z,28.45
2022-12-12T16:48:46.722Z,25.98
2022-12-12T16:51:42.951Z,23.80
2022-12-12T16:54:14.788Z,22.80
2022-12-12T16:56:41.768Z,33.38
2022-12-12T16:59:08.543Z,26.85
2022-12-12T17:01:38.781Z,23.98
2022-12-12T17:04:07.297Z,56.40
2022-12-12T17:06:34.038Z,46.67
2022-12-12T17:09:00.870Z,51.78
2022-12-12T17:11:27.564Z,66.55
2022-12-12T17:13:54.299Z,58.50
2022-12-12T17:16:27.373Z,82.25
2022-12-12T17:18:54.515Z,62.25
2022-12-12T17:21:21.259Z,92.60
2022-12-12T17:23:47.928Z,63.95
2022-12-12T17:26:14.601Z,63.95
2022-12-12T17:28:41.344Z,50.35
2022-12-12T17:31:08.925Z,52.47
2022-12-12T17:33:45.803Z,44.25
2022-12-12T17:36:16.915Z,40.08
2022-12-12T17:38:43.612Z,45.45
2022-12-12T17:41:10.887Z,37.95
2022-12-12T17:43:38.266Z,38.50
2022-12-12T17:46:07.617Z,37.20
2022-12-12T17:48:35.888Z,40.20
2022-12-12T17:51:06.302Z,43.97
2022-12-12T17:53:38.990Z,45.97
2022-12-12T17:56:10.743Z,39.08
2022-12-12T17:58:39.208Z,47.60
2022-12-12T18:01:14.096Z,47.38
2022-12-12T18:03:41.816Z,46.10
2022-12-12T18:06:08.984Z,38.10
2022-12-12T18:08:36.608Z,39.75
2022-12-12T18:11:10.037Z,58.95
2022-12-12T18:13:38.721Z,43.03
2022-12-12T18:16:06.763Z,61.30
2022-12-12T18:18:34.198Z,78.28
2022-12-12T18:21:05.608Z,56.67
2022-12-12T18:23:33.120Z,55.10
2022-12-12T18:26:11.203Z,44.97
2022-12-12T18:28:38.020Z,39.95
2022-12-12T18:31:05.258Z,37.03
2022-12-12T18:33:32.156Z,41.83
2022-12-12T18:36:08.522Z,41.92
2022-12-12T18:38:36.155Z,39.83
2022-12-12T18:41:03.920Z,41.22
2022-12-12T18:43:31.116Z,36.45
2022-12-12T18:46:08.797Z,37.92
2022-12-12T18:48:38.661Z,39.28
2022-12-12T18:51:10.870Z,39.00
2022-12-12T18:53:39.398Z,39.00
2022-12-12T18:56:07.815Z,36.70
2022-12-12T18:58:35.191Z,34.50
2022-12-12T19:01:20.991Z,45.75
2022-12-12T19:03:52.298Z,38.35
2022-12-12T19:06:24.907Z,40.97
2022-12-12T19:08:52.641Z,36.95
2022-12-12T19:11:19.733Z,39.65
2022-12-12T19:13:47.257Z,33.80
2022-12-12T19:16:16.503Z,55.15
2022-12-12T19:18:43.662Z,39.70
2022-12-12T19:21:13.162Z,45.28
2022-12-12T19:23:40.179Z,39.10
2022-12-12T19:26:15.132Z,36.03
2022-12-12T19:28:42.475Z,35.55
2022-12-12T19:31:14.844Z,53.97
2022-12-12T19:33:43.257Z,44.47
2022-12-12T19:36:15.573Z,43.33
2022-12-12T19:38:42.590Z,39.53
2022-12-12T19:41:10.691Z,45.97
2022-12-12T19:43:37.507Z,45.55
2022-12-12T19:46:16.317Z,69.00
2022-12-12T19:48:44.604Z,51.80
2022-12-12T19:51:16.532Z,59.78
2022-12-12T19:53:45.892Z,62.88
2022-12-12T19:56:14.057Z,53.35
2022-12-12T19:58:41.422Z,44.55
2022-12-12T20:01:14.058Z,47.30
2022-12-12T20:03:41.337Z,37.33
2022-12-12T20:06:10.698Z,38.70
2022-12-12T20:08:38.135Z,40.50
2022-12-12T20:11:10.217Z,40.22
2022-12-12T20:13:37.295Z,37.97
2022-12-12T20:16:05.902Z,34.00
2022-12-12T20:18:33.062Z,33.00
2022-12-12T20:21:03.111Z,37.90
2022-12-12T20:23:31.542Z,42.30
2022-12-12T20:25:58.589Z,36.63
2022-12-12T20:28:25.334Z,36.45
2022-12-12T20:31:03.683Z,33.00
2022-12-12T20:33:30.508Z,30.98
2022-12-12T20:36:01.727Z,30.00
2022-12-12T20:38:33.673Z,31.05
2022-12-12T20:41:00.947Z,29.80
2022-12-12T20:43:28.369Z,29.80
2022-12-12T20:45:55.460Z,27.42
2022-12-12T20:48:22.318Z,22.40
2022-12-12T20:50:49.224Z,23.80
2022-12-12T20:53:15.950Z,24.33
2022-12-12T20:55:42.669Z,19.23
2022-12-12T20:58:09.366Z,23.77
2022-12-12T21:00:38.207Z,23.00
2022-12-12T21:03:04.913Z,21.98
2022-12-12T21:05:31.603Z,20.15
2022-12-12T21:07:58.518Z,22.38
2022-12-12T21:10:25.283Z,19.90
2022-12-12T21:12:51.994Z,23.85
2022-12-12T21:15:19.083Z,29.63
2022-12-12T21:17:45.905Z,22.80
2022-12-12T21:20:12.607Z,20.50
2022-12-12T21:22:39.317Z,15.93
2022-12-12T21:25:06.341Z,17.05
2022-12-12T21:27:33.267Z,16.45
2022-12-12T21:29:59.977Z,13.55
2022-12-12T21:32:26.722Z,11.85
2022-12-12T21:34:53.442Z,15.65
2022-12-12T21:37:20.361Z,12.35
2022-12-12T21:39:47.109Z,15.43
2022-12-12T21:42:13.788Z,11.82
2022-12-12T21:44:45.495Z,15.07
2022-12-12T21:47:12.803Z,13.40
2022-12-12T21:49:39.473Z,18.08
2022-12-12T21:52:09.996Z,11.50
2022-12-12T21:54:36.778Z,10.45
2022-12-12T21:57:04.321Z,11.52
2022-12-12T21:59:31.101Z,13.52
2022-12-12T22:02:00.341Z,13.07
2022-12-12T22:04:27.628Z,11.93
2022-12-12T22:06:54.457Z,21.52
2022-12-12T22:09:21.156Z,17.55
2022-12-12T22:11:50.105Z,15.80
2022-12-12T22:14:19.846Z,17.15
2022-12-12T22:16:46.561Z,13.60
2022-12-12T22:19:14.581Z,25.60
2022-12-12T22:21:41.829Z,18.48
2022-12-12T22:24:09.113Z,13.40
2022-12-12T22:26:38.225Z,16.27
2022-12-12T22:29:07.283Z,11.63
2022-12-12T22:31:37.516Z,13.43
2022-12-12T22:34:18.243Z,11.13
2022-12-12T22:36:46.144Z,9.45
2022-12-12T22:39:24.510Z,12.95
2022-12-12T22:41:51.383Z,13.07
2022-12-12T22:44:19.992Z,17.70
2022-12-12T22:46:48.327Z,11.57
2022-12-12T22:49:17.905Z,13.68
2022-12-12T22:51:44.710Z,10.45
2022-12-12T22:54:11.586Z,9.52
2022-12-12T22:56:39.495Z,12.38
2022-12-12T22:59:07.231Z,12.05
2022-12-12T23:01:34.099Z,21.90
2022-12-12T23:04:01.008Z,12.07
2022-12-12T23:06:30.110Z,24.10
2022-12-12T23:09:05.656Z,14.75
2022-12-12T23:11:33.265Z,18.08
2022-12-12T23:14:02.407Z,10.77
2022-12-12T23:16:30.859Z,13.52
2022-12-12T23:18:58.760Z,13.27
2022-12-12T23:21:26.195Z,11.73
2022-12-12T23:23:53.583Z,10.48
2022-12-12T23:26:23.238Z,9.75
2022-12-12T23:28:50.197Z,8.93
2022-12-12T23:31:20.127Z,12.65
2022-12-12T23:33:47.604Z,12.43
2022-12-12T23:36:15.622Z,9.30
2022-12-12T23:38:42.630Z,9.18
2022-12-12T23:41:12.181Z,9.98
2022-12-12T23:43:40.007Z,9.23
2022-12-12T23:46:08.891Z,10.48
2022-12-12T23:48:35.632Z,11.15
2022-12-12T23:51:02.438Z,11.32
2022-12-12T23:53:32.433Z,10.32
2022-12-12T23:56:03.733Z,17.95
2022-12-12T23:58:30.376Z,12.10
